sensor_id;sensor_type;location;lat;lon;timestamp;temperature;humidity
32097;DHT22;18610;49.916;8.284;2024-02-14T00:01:14;7.00;99.90
32097;DHT22;18610;49.916;8.284;2024-02-14T00:03:42;7.10;99.90
32097;DHT22;18610;49.916;8.284;2024-02-14T00:06:09;7.10;99.90
32097;DHT22;18610;49.916;8.284;2024-02-14T00:08:37;7.10;99.90
32097;DHT22;18610;49.916;8.284;2024-02-14T00:11:04;7.10;99.90
32097;DHT22;18610;49.916;8.284;2024-02-14T00:13:30;7.10;99.90
32097;DHT22;18610;49.916;8.284;2024-02-14T00:15:59;7.20;99.90
32097;DHT22;18610;49.916;8.284;2024-02-14T00:18:26;7.10;99.90
32097;DHT22;18610;49.916;8.284;2024-02-14T00:20:54;7.10;99.90
32097;DHT22;18610;49.916;8.284;2024-02-14T00:23:20;7.20;99.90
32097;DHT22;18610;49.916;8.284;2024-02-14T00:25:47;7.20;99.90
32097;DHT22;18610;49.916;8.284;2024-02-14T00:28:14;7.20;99.90
32097;DHT22;18610;49.916;8.284;2024-02-14T00:30:40;7.20;99.90
32097;DHT22;18610;49.916;8.284;2024-02-14T00:33:07;7.30;99.90
32097;DHT22;18610;49.916;8.284;2024-02-14T00:35:34;7.30;99.90
32097;DHT22;18610;49.916;8.284;2024-02-14T00:38:02;7.30;99.90
32097;DHT22;18610;49.916;8.284;2024-02-14T00:40:28;7.30;99.90
32097;DHT22;18610;49.916;8.284;2024-02-14T00:42:56;7.30;99.90
32097;DHT22;18610;49.916;8.284;2024-02-14T00:45:23;7.30;99.90
32097;DHT22;18610;49.916;8.284;2024-02-14T00:47:50;7.20;99.90
32097;DHT22;18610;49.916;8.284;2024-02-14T00:50:16;7.30;99.90
32097;DHT22;18610;49.916;8.284;2024-02-14T00:52:43;7.20;99.90
32097;DHT22;18610;49.916;8.284;2024-02-14T00:55:11;7.20;99.90
32097;DHT22;18610;49.916;8.284;2024-02-14T00:57:38;7.30;99.90
32097;DHT22;18610;49.916;8.284;2024-02-14T01:00:06;7.30;99.90
32097;DHT22;18610;49.916;8.284;2024-02-14T01:02:34;7.30;99.90
32097;DHT22;18610;49.916;8.284;2024-02-14T01:05:01;7.30;99.90
32097;DHT22;18610;49.916;8.284;2024-02-14T01:07:29;7.30;99.90
32097;DHT22;18610;49.916;8.284;2024-02-14T01:09:56;7.30;99.90
32097;DHT22;18610;49.916;8.284;2024-02-14T01:12:24;7.30;99.90
32097;DHT22;18610;49.916;8.284;2024-02-14T01:14:51;7.30;99.90
32097;DHT22;18610;49.916;8.284;2024-02-14T01:17:17;7.40;99.90
32097;DHT22;18610;49.916;8.284;2024-02-14T01:19:44;7.40;99.90
32097;DHT22;18610;49.916;8.284;2024-02-14T01:22:11;7.40;99.90
32097;DHT22;18610;49.916;8.284;2024-02-14T01:24:41;7.50;99.90
32097;DHT22;18610;49.916;8.284;2024-02-14T01:27:08;7.40;99.90
32097;DHT22;18610;49.916;8.284;2024-02-14T01:29:36;7.40;99.90
32097;DHT22;18610;49.916;8.284;2024-02-14T01:32:04;7.40;99.90
32097;DHT22;18610;49.916;8.284;2024-02-14T01:34:32;7.40;99.90
32097;DHT22;18610;49.916;8.284;2024-02-14T01:36:58;7.50;99.90
32097;DHT22;18610;49.916;8.284;2024-02-14T01:39:25;7.50;99.90
32097;DHT22;18610;49.916;8.284;2024-02-14T01:41:52;7.50;99.90
32097;DHT22;18610;49.916;8.284;2024-02-14T01:44:18;7.50;99.90
32097;DHT22;18610;49.916;8.284;2024-02-14T01:46:47;7.60;99.90
32097;DHT22;18610;49.916;8.284;2024-02-14T01:49:15;7.50;99.90
32097;DHT22;18610;49.916;8.284;2024-02-14T01:51:43;7.50;99.90
32097;DHT22;18610;49.916;8.284;2024-02-14T01:54:12;7.50;99.90
32097;DHT22;18610;49.916;8.284;2024-02-14T01:56:39;7.50;99.90
32097;DHT22;18610;49.916;8.284;2024-02-14T01:59:06;7.50;99.90
32097;DHT22;18610;49.916;8.284;2024-02-14T02:01:33;7.40;99.90
32097;DHT22;18610;49.916;8.284;2024-02-14T02:04:01;7.40;99.90
32097;DHT22;18610;49.916;8.284;2024-02-14T02:06:28;7.40;99.90
32097;DHT22;18610;49.916;8.284;2024-02-14T02:08:56;7.40;99.90
32097;DHT22;18610;49.916;8.284;2024-02-14T02:11:24;7.40;99.90
32097;DHT22;18610;49.916;8.284;2024-02-14T02:13:51;7.40;99.90
32097;DHT22;18610;49.916;8.284;2024-02-14T02:16:18;7.40;99.90
32097;DHT22;18610;49.916;8.284;2024-02-14T02:18:45;7.40;99.90
32097;DHT22;18610;49.916;8.284;2024-02-14T02:21:15;7.40;99.90
32097;DHT22;18610;49.916;8.284;2024-02-14T02:23:46;7.40;99.90
32097;DHT22;18610;49.916;8.284;2024-02-14T02:26:13;7.40;99.90
32097;DHT22;18610;49.916;8.284;2024-02-14T02:28:40;7.40;99.90
32097;DHT22;18610;49.916;8.284;2024-02-14T02:31:07;7.40;99.90
32097;DHT22;18610;49.916;8.284;2024-02-14T02:33:34;7.40;99.90
32097;DHT22;18610;49.916;8.284;2024-02-14T02:36:01;7.40;99.90
32097;DHT22;18610;49.916;8.284;2024-02-14T02:38:28;7.50;99.90
32097;DHT22;18610;49.916;8.284;2024-02-14T02:40:56;7.50;99.90
32097;DHT22;18610;49.916;8.284;2024-02-14T02:43:23;7.50;99.90
32097;DHT22;18610;49.916;8.284;2024-02-14T02:45:49;7.50;99.90
32097;DHT22;18610;49.916;8.284;2024-02-14T02:48:16;7.50;99.90
32097;DHT22;18610;49.916;8.284;2024-02-14T02:50:42;7.50;99.90
32097;DHT22;18610;49.916;8.284;2024-02-14T02:53:09;7.50;99.90
32097;DHT22;18610;49.916;8.284;2024-02-14T02:55:37;7.50;99.90
32097;DHT22;18610;49.916;8.284;2024-02-14T02:58:05;7.50;99.90
32097;DHT22;18610;49.916;8.284;2024-02-14T03:00:32;7.50;99.90
32097;DHT22;18610;49.916;8.284;2024-02-14T03:02:59;7.50;99.90
32097;DHT22;18610;49.916;8.284;2024-02-14T03:05:26;7.50;99.90
32097;DHT22;18610;49.916;8.284;2024-02-14T03:07:53;7.50;99.90
32097;DHT22;18610;49.916;8.284;2024-02-14T03:10:21;7.50;99.90
32097;DHT22;18610;49.916;8.284;2024-02-14T03:12:48;7.50;99.90
32097;DHT22;18610;49.916;8.284;2024-02-14T03:15:16;7.50;99.90
32097;DHT22;18610;49.916;8.284;2024-02-14T03:17:43;7.50;99.90
32097;DHT22;18610;49.916;8.284;2024-02-14T03:20:11;7.50;99.90
32097;DHT22;18610;49.916;8.284;2024-02-14T03:22:39;7.40;99.90
32097;DHT22;18610;49.916;8.284;2024-02-14T03:25:11;7.40;99.90
32097;DHT22;18610;49.916;8.284;2024-02-14T03:27:38;7.30;99.90
32097;DHT22;18610;49.916;8.284;2024-02-14T03:30:06;7.20;99.90
32097;DHT22;18610;49.916;8.284;2024-02-14T03:32:34;7.20;99.90
32097;DHT22;18610;49.916;8.284;2024-02-14T03:35:01;7.20;99.90
32097;DHT22;18610;49.916;8.284;2024-02-14T03:37:28;7.10;99.90
32097;DHT22;18610;49.916;8.284;2024-02-14T03:39:54;7.10;99.90
32097;DHT22;18610;49.916;8.284;2024-02-14T03:42:21;7.10;99.90
32097;DHT22;18610;49.916;8.284;2024-02-14T03:44:48;7.20;99.90
32097;DHT22;18610;49.916;8.284;2024-02-14T03:47:14;7.10;99.90
32097;DHT22;18610;49.916;8.284;2024-02-14T03:49:42;7.00;99.90
32097;DHT22;18610;49.916;8.284;2024-02-14T03:52:09;7.00;99.90
32097;DHT22;18610;49.916;8.284;2024-02-14T03:54:37;7.00;99.90
32097;DHT22;18610;49.916;8.284;2024-02-14T03:57:04;7.00;99.90
32097;DHT22;18610;49.916;8.284;2024-02-14T03:59:32;6.90;99.90
32097;DHT22;18610;49.916;8.284;2024-02-14T04:02:00;6.90;99.90
32097;DHT22;18610;49.916;8.284;2024-02-14T04:04:27;6.90;99.90
32097;DHT22;18610;49.916;8.284;2024-02-14T04:06:55;6.90;99.90
32097;DHT22;18610;49.916;8.284;2024-02-14T04:09:24;6.90;99.90
32097;DHT22;18610;49.916;8.284;2024-02-14T04:11:50;6.80;99.90
32097;DHT22;18610;49.916;8.284;2024-02-14T04:14:17;6.80;99.90
32097;DHT22;18610;49.916;8.284;2024-02-14T04:16:43;6.70;99.90
32097;DHT22;18610;49.916;8.284;2024-02-14T04:19:10;6.70;99.90
32097;DHT22;18610;49.916;8.284;2024-02-14T04:21:38;6.70;99.90
32097;DHT22;18610;49.916;8.284;2024-02-14T04:24:06;6.70;99.90
32097;DHT22;18610;49.916;8.284;2024-02-14T04:26:33;6.70;99.90
32097;DHT22;18610;49.916;8.284;2024-02-14T04:29:00;6.70;99.90
32097;DHT22;18610;49.916;8.284;2024-02-14T04:31:27;6.70;99.90
32097;DHT22;18610;49.916;8.284;2024-02-14T04:33:55;6.70;99.90
32097;DHT22;18610;49.916;8.284;2024-02-14T04:36:21;6.70;99.90
32097;DHT22;18610;49.916;8.284;2024-02-14T04:38:49;6.70;99.90
32097;DHT22;18610;49.916;8.284;2024-02-14T04:41:18;6.80;99.90
32097;DHT22;18610;49.916;8.284;2024-02-14T04:43:45;6.70;99.90
32097;DHT22;18610;49.916;8.284;2024-02-14T04:46:11;6.80;99.90
32097;DHT22;18610;49.916;8.284;2024-02-14T04:48:38;6.80;99.90
32097;DHT22;18610;49.916;8.284;2024-02-14T04:51:05;6.80;99.90
32097;DHT22;18610;49.916;8.284;2024-02-14T04:53:31;6.80;99.90
32097;DHT22;18610;49.916;8.284;2024-02-14T04:55:58;6.80;99.90
32097;DHT22;18610;49.916;8.284;2024-02-14T04:58:26;6.80;99.90
32097;DHT22;18610;49.916;8.284;2024-02-14T05:00:53;6.90;99.90
32097;DHT22;18610;49.916;8.284;2024-02-14T05:03:20;6.90;99.90
32097;DHT22;18610;49.916;8.284;2024-02-14T05:05:49;6.90;99.90
32097;DHT22;18610;49.916;8.284;2024-02-14T05:08:16;7.00;99.90
32097;DHT22;18610;49.916;8.284;2024-02-14T05:10:42;7.10;99.90
32097;DHT22;18610;49.916;8.284;2024-02-14T05:13:09;7.10;99.90
32097;DHT22;18610;49.916;8.284;2024-02-14T05:15:37;7.10;99.90
32097;DHT22;18610;49.916;8.284;2024-02-14T05:18:04;7.10;99.90
32097;DHT22;18610;49.916;8.284;2024-02-14T05:20:31;7.10;99.90
32097;DHT22;18610;49.916;8.284;2024-02-14T05:22:58;7.20;99.90
32097;DHT22;18610;49.916;8.284;2024-02-14T05:25:25;7.20;99.90
32097;DHT22;18610;49.916;8.284;2024-02-14T05:27:55;7.20;99.90
32097;DHT22;18610;49.916;8.284;2024-02-14T05:30:21;7.20;99.90
32097;DHT22;18610;49.916;8.284;2024-02-14T05:32:49;7.20;99.90
32097;DHT22;18610;49.916;8.284;2024-02-14T05:35:18;7.20;99.90
32097;DHT22;18610;49.916;8.284;2024-02-14T05:37:45;7.20;99.90
32097;DHT22;18610;49.916;8.284;2024-02-14T05:40:15;7.20;99.90
32097;DHT22;18610;49.916;8.284;2024-02-14T05:42:42;7.30;99.90
32097;DHT22;18610;49.916;8.284;2024-02-14T05:45:09;7.30;99.90
32097;DHT22;18610;49.916;8.284;2024-02-14T05:47:36;7.30;99.90
32097;DHT22;18610;49.916;8.284;2024-02-14T05:50:05;7.30;99.90
32097;DHT22;18610;49.916;8.284;2024-02-14T05:52:34;7.30;99.90
32097;DHT22;18610;49.916;8.284;2024-02-14T05:55:01;7.40;99.90
32097;DHT22;18610;49.916;8.284;2024-02-14T05:57:28;7.40;99.90
32097;DHT22;18610;49.916;8.284;2024-02-14T05:59:55;7.50;99.90
32097;DHT22;18610;49.916;8.284;2024-02-14T06:02:22;7.50;99.90
32097;DHT22;18610;49.916;8.284;2024-02-14T06:04:48;7.50;99.90
32097;DHT22;18610;49.916;8.284;2024-02-14T06:07:17;7.60;99.90
32097;DHT22;18610;49.916;8.284;2024-02-14T06:09:44;7.70;99.90
32097;DHT22;18610;49.916;8.284;2024-02-14T06:12:11;7.70;99.90
32097;DHT22;18610;49.916;8.284;2024-02-14T06:14:38;7.70;99.90
32097;DHT22;18610;49.916;8.284;2024-02-14T06:17:04;7.70;99.90
32097;DHT22;18610;49.916;8.284;2024-02-14T06:19:31;7.70;99.90
32097;DHT22;18610;49.916;8.284;2024-02-14T06:21:58;7.80;99.90
32097;DHT22;18610;49.916;8.284;2024-02-14T06:24:26;7.80;99.90
32097;DHT22;18610;49.916;8.284;2024-02-14T06:26:53;7.80;99.90
32097;DHT22;18610;49.916;8.284;2024-02-14T06:29:20;7.90;99.90
32097;DHT22;18610;49.916;8.284;2024-02-14T06:31:47;7.90;99.90
32097;DHT22;18610;49.916;8.284;2024-02-14T06:34:13;7.90;99.90
32097;DHT22;18610;49.916;8.284;2024-02-14T06:36:40;7.90;99.90
32097;DHT22;18610;49.916;8.284;2024-02-14T06:39:07;8.00;99.90
32097;DHT22;18610;49.916;8.284;2024-02-14T06:41:35;8.00;99.90
32097;DHT22;18610;49.916;8.284;2024-02-14T06:44:02;8.00;99.90
32097;DHT22;18610;49.916;8.284;2024-02-14T06:46:29;8.10;99.90
32097;DHT22;18610;49.916;8.284;2024-02-14T06:48:55;8.10;99.90
32097;DHT22;18610;49.916;8.284;2024-02-14T06:51:22;8.20;99.90
32097;DHT22;18610;49.916;8.284;2024-02-14T06:53:49;8.20;99.90
32097;DHT22;18610;49.916;8.284;2024-02-14T06:56:16;8.20;99.90
32097;DHT22;18610;49.916;8.284;2024-02-14T06:58:44;8.30;99.90
32097;DHT22;18610;49.916;8.284;2024-02-14T07:01:11;8.30;99.90
32097;DHT22;18610;49.916;8.284;2024-02-14T07:03:40;8.30;99.90
32097;DHT22;18610;49.916;8.284;2024-02-14T07:06:07;8.30;99.90
32097;DHT22;18610;49.916;8.284;2024-02-14T07:08:34;8.30;99.90
32097;DHT22;18610;49.916;8.284;2024-02-14T07:11:00;8.30;99.90
32097;DHT22;18610;49.916;8.284;2024-02-14T07:13:27;8.40;99.90
32097;DHT22;18610;49.916;8.284;2024-02-14T07:15:55;8.40;99.90
32097;DHT22;18610;49.916;8.284;2024-02-14T07:18:22;8.40;99.90
32097;DHT22;18610;49.916;8.284;2024-02-14T07:20:48;8.40;99.90
32097;DHT22;18610;49.916;8.284;2024-02-14T07:23:16;8.50;99.90
32097;DHT22;18610;49.916;8.284;2024-02-14T07:25:43;8.50;99.90
32097;DHT22;18610;49.916;8.284;2024-02-14T07:28:10;8.50;99.90
32097;DHT22;18610;49.916;8.284;2024-02-14T07:30:37;8.50;99.90
32097;DHT22;18610;49.916;8.284;2024-02-14T07:33:05;8.50;99.90
32097;DHT22;18610;49.916;8.284;2024-02-14T07:35:33;8.50;99.90
32097;DHT22;18610;49.916;8.284;2024-02-14T07:38:00;8.50;99.90
32097;DHT22;18610;49.916;8.284;2024-02-14T07:40:26;8.50;99.90
32097;DHT22;18610;49.916;8.284;2024-02-14T07:42:56;8.50;99.90
32097;DHT22;18610;49.916;8.284;2024-02-14T07:45:22;8.60;99.90
32097;DHT22;18610;49.916;8.284;2024-02-14T07:47:49;8.60;99.90
32097;DHT22;18610;49.916;8.284;2024-02-14T07:50:17;8.50;99.90
32097;DHT22;18610;49.916;8.284;2024-02-14T07:52:45;8.60;99.90
32097;DHT22;18610;49.916;8.284;2024-02-14T07:55:12;8.60;99.90
32097;DHT22;18610;49.916;8.284;2024-02-14T07:57:39;8.60;99.90
32097;DHT22;18610;49.916;8.284;2024-02-14T08:00:06;8.60;99.90
32097;DHT22;18610;49.916;8.284;2024-02-14T08:02:33;8.60;99.90
32097;DHT22;18610;49.916;8.284;2024-02-14T08:05:00;8.60;99.90
32097;DHT22;18610;49.916;8.284;2024-02-14T08:07:28;8.60;99.90
32097;DHT22;18610;49.916;8.284;2024-02-14T08:09:56;8.60;99.90
32097;DHT22;18610;49.916;8.284;2024-02-14T08:12:23;8.70;99.90
32097;DHT22;18610;49.916;8.284;2024-02-14T08:14:51;8.70;99.90
32097;DHT22;18610;49.916;8.284;2024-02-14T08:17:18;8.70;99.90
32097;DHT22;18610;49.916;8.284;2024-02-14T08:19:44;8.70;99.90
32097;DHT22;18610;49.916;8.284;2024-02-14T08:22:11;8.70;99.90
32097;DHT22;18610;49.916;8.284;2024-02-14T08:24:39;8.70;99.90
32097;DHT22;18610;49.916;8.284;2024-02-14T08:27:06;8.80;99.90
32097;DHT22;18610;49.916;8.284;2024-02-14T08:29:33;8.80;99.90
32097;DHT22;18610;49.916;8.284;2024-02-14T08:31:59;8.80;99.90
32097;DHT22;18610;49.916;8.284;2024-02-14T08:34:26;8.80;99.90
32097;DHT22;18610;49.916;8.284;2024-02-14T08:36:53;8.80;99.90
32097;DHT22;18610;49.916;8.284;2024-02-14T08:39:20;8.80;99.90
32097;DHT22;18610;49.916;8.284;2024-02-14T08:41:48;8.80;99.90
32097;DHT22;18610;49.916;8.284;2024-02-14T08:44:15;8.90;99.90
32097;DHT22;18610;49.916;8.284;2024-02-14T08:46:43;8.90;99.90
32097;DHT22;18610;49.916;8.284;2024-02-14T08:49:13;8.90;99.90
32097;DHT22;18610;49.916;8.284;2024-02-14T08:51:40;8.90;99.90
32097;DHT22;18610;49.916;8.284;2024-02-14T08:54:09;8.90;99.90
32097;DHT22;18610;49.916;8.284;2024-02-14T08:56:36;8.90;99.90
32097;DHT22;18610;49.916;8.284;2024-02-14T08:59:04;8.90;99.90
32097;DHT22;18610;49.916;8.284;2024-02-14T09:01:32;8.90;99.90
32097;DHT22;18610;49.916;8.284;2024-02-14T09:03:59;8.90;99.90
32097;DHT22;18610;49.916;8.284;2024-02-14T09:06:26;8.90;99.90
32097;DHT22;18610;49.916;8.284;2024-02-14T09:08:53;9.00;99.90
32097;DHT22;18610;49.916;8.284;2024-02-14T09:11:20;9.00;99.90
32097;DHT22;18610;49.916;8.284;2024-02-14T09:13:48;9.00;99.90
32097;DHT22;18610;49.916;8.284;2024-02-14T09:16:17;9.10;99.90
32097;DHT22;18610;49.916;8.284;2024-02-14T09:18:45;9.20;99.90
32097;DHT22;18610;49.916;8.284;2024-02-14T09:21:12;9.20;99.90
32097;DHT22;18610;49.916;8.284;2024-02-14T09:23:41;9.20;99.90
32097;DHT22;18610;49.916;8.284;2024-02-14T09:26:07;9.10;99.90
32097;DHT22;18610;49.916;8.284;2024-02-14T09:28:34;9.20;99.90
32097;DHT22;18610;49.916;8.284;2024-02-14T09:31:02;9.20;99.90
32097;DHT22;18610;49.916;8.284;2024-02-14T09:33:31;9.20;99.90
32097;DHT22;18610;49.916;8.284;2024-02-14T09:35:57;9.30;99.90
32097;DHT22;18610;49.916;8.284;2024-02-14T09:38:24;9.30;99.90
32097;DHT22;18610;49.916;8.284;2024-02-14T09:40:53;9.30;99.90
32097;DHT22;18610;49.916;8.284;2024-02-14T09:43:28;9.40;99.90
32097;DHT22;18610;49.916;8.284;2024-02-14T09:45:55;9.50;99.90
32097;DHT22;18610;49.916;8.284;2024-02-14T09:48:23;9.50;99.90
32097;DHT22;18610;49.916;8.284;2024-02-14T09:50:52;9.60;99.90
32097;DHT22;18610;49.916;8.284;2024-02-14T09:53:20;9.60;99.90
32097;DHT22;18610;49.916;8.284;2024-02-14T09:55:48;9.70;99.90
32097;DHT22;18610;49.916;8.284;2024-02-14T09:58:16;9.70;99.90
32097;DHT22;18610;49.916;8.284;2024-02-14T10:00:43;9.80;99.90
32097;DHT22;18610;49.916;8.284;2024-02-14T10:03:10;9.80;99.90
32097;DHT22;18610;49.916;8.284;2024-02-14T10:05:38;9.90;99.90
32097;DHT22;18610;49.916;8.284;2024-02-14T10:08:06;9.90;99.90
32097;DHT22;18610;49.916;8.284;2024-02-14T10:10:34;10.00;99.90
32097;DHT22;18610;49.916;8.284;2024-02-14T10:13:03;10.00;99.90
32097;DHT22;18610;49.916;8.284;2024-02-14T10:15:30;10.10;99.90
32097;DHT22;18610;49.916;8.284;2024-02-14T10:17:57;10.10;99.90
32097;DHT22;18610;49.916;8.284;2024-02-14T10:20:24;10.10;99.90
32097;DHT22;18610;49.916;8.284;2024-02-14T10:22:52;10.20;99.90
32097;DHT22;18610;49.916;8.284;2024-02-14T10:25:20;10.20;99.90
32097;DHT22;18610;49.916;8.284;2024-02-14T10:27:47;10.20;99.90
32097;DHT22;18610;49.916;8.284;2024-02-14T10:30:14;10.20;99.90
32097;DHT22;18610;49.916;8.284;2024-02-14T10:32:41;10.30;99.90
32097;DHT22;18610;49.916;8.284;2024-02-14T10:35:13;10.30;99.90
32097;DHT22;18610;49.916;8.284;2024-02-14T10:37:40;10.30;99.90
32097;DHT22;18610;49.916;8.284;2024-02-14T10:40:08;10.30;99.90
32097;DHT22;18610;49.916;8.284;2024-02-14T10:42:36;10.40;99.90
32097;DHT22;18610;49.916;8.284;2024-02-14T10:45:04;10.40;99.90
32097;DHT22;18610;49.916;8.284;2024-02-14T10:47:34;10.50;99.90
32097;DHT22;18610;49.916;8.284;2024-02-14T10:50:03;10.50;99.90
32097;DHT22;18610;49.916;8.284;2024-02-14T10:52:31;10.60;99.90
32097;DHT22;18610;49.916;8.284;2024-02-14T10:55:01;10.60;99.90
32097;DHT22;18610;49.916;8.284;2024-02-14T10:57:29;10.70;99.90
32097;DHT22;18610;49.916;8.284;2024-02-14T11:00:01;10.70;99.90
32097;DHT22;18610;49.916;8.284;2024-02-14T11:02:28;10.70;99.90
32097;DHT22;18610;49.916;8.284;2024-02-14T11:04:56;10.70;99.90
32097;DHT22;18610;49.916;8.284;2024-02-14T11:07:23;10.60;99.90
32097;DHT22;18610;49.916;8.284;2024-02-14T11:10:00;10.60;99.90
32097;DHT22;18610;49.916;8.284;2024-02-14T11:12:32;10.70;99.90
32097;DHT22;18610;49.916;8.284;2024-02-14T11:15:01;10.60;99.90
32097;DHT22;18610;49.916;8.284;2024-02-14T11:17:31;10.70;99.90
32097;DHT22;18610;49.916;8.284;2024-02-14T11:19:58;10.70;99.90
32097;DHT22;18610;49.916;8.284;2024-02-14T11:22:24;10.70;99.90
32097;DHT22;18610;49.916;8.284;2024-02-14T11:24:51;10.80;99.90
32097;DHT22;18610;49.916;8.284;2024-02-14T11:27:18;10.80;99.90
32097;DHT22;18610;49.916;8.284;2024-02-14T11:29:51;10.80;99.90
32097;DHT22;18610;49.916;8.284;2024-02-14T11:32:22;10.80;99.90
32097;DHT22;18610;49.916;8.284;2024-02-14T11:34:53;10.80;99.90
32097;DHT22;18610;49.916;8.284;2024-02-14T11:37:20;10.80;99.90
32097;DHT22;18610;49.916;8.284;2024-02-14T11:39:48;10.80;99.90
32097;DHT22;18610;49.916;8.284;2024-02-14T11:42:15;10.70;99.90
32097;DHT22;18610;49.916;8.284;2024-02-14T11:44:42;10.60;99.90
32097;DHT22;18610;49.916;8.284;2024-02-14T11:47:09;10.60;99.90
32097;DHT22;18610;49.916;8.284;2024-02-14T11:49:37;10.60;99.90
32097;DHT22;18610;49.916;8.284;2024-02-14T11:52:05;10.60;99.90
32097;DHT22;18610;49.916;8.284;2024-02-14T11:54:31;10.60;99.90
32097;DHT22;18610;49.916;8.284;2024-02-14T11:56:59;10.60;99.90
32097;DHT22;18610;49.916;8.284;2024-02-14T11:59:26;10.50;99.90
32097;DHT22;18610;49.916;8.284;2024-02-14T12:01:52;10.50;99.90
32097;DHT22;18610;49.916;8.284;2024-02-14T12:04:23;10.50;99.90
32097;DHT22;18610;49.916;8.284;2024-02-14T12:06:51;10.50;99.90
32097;DHT22;18610;49.916;8.284;2024-02-14T12:09:18;10.60;99.90
32097;DHT22;18610;49.916;8.284;2024-02-14T12:11:44;10.60;99.90
32097;DHT22;18610;49.916;8.284;2024-02-14T12:14:12;10.60;99.90
32097;DHT22;18610;49.916;8.284;2024-02-14T12:16:40;10.70;99.90
32097;DHT22;18610;49.916;8.284;2024-02-14T12:19:09;10.70;99.90
32097;DHT22;18610;49.916;8.284;2024-02-14T12:21:36;10.70;99.90
32097;DHT22;18610;49.916;8.284;2024-02-14T12:24:06;10.70;99.90
32097;DHT22;18610;49.916;8.284;2024-02-14T12:26:34;10.70;99.90
32097;DHT22;18610;49.916;8.284;2024-02-14T12:29:01;10.80;99.90
32097;DHT22;18610;49.916;8.284;2024-02-14T12:31:29;10.70;99.90
32097;DHT22;18610;49.916;8.284;2024-02-14T12:33:56;10.80;99.90
32097;DHT22;18610;49.916;8.284;2024-02-14T12:36:25;10.80;99.90
32097;DHT22;18610;49.916;8.284;2024-02-14T12:38:52;10.80;99.90
32097;DHT22;18610;49.916;8.284;2024-02-14T12:41:20;10.80;99.90
32097;DHT22;18610;49.916;8.284;2024-02-14T12:43:47;10.80;99.90
32097;DHT22;18610;49.916;8.284;2024-02-14T12:46:14;10.80;99.90
32097;DHT22;18610;49.916;8.284;2024-02-14T12:48:41;10.80;99.90
32097;DHT22;18610;49.916;8.284;2024-02-14T12:51:08;10.80;99.90
32097;DHT22;18610;49.916;8.284;2024-02-14T12:53:35;10.90;99.90
32097;DHT22;18610;49.916;8.284;2024-02-14T12:56:02;10.90;99.90
32097;DHT22;18610;49.916;8.284;2024-02-14T12:58:32;10.90;99.90
32097;DHT22;18610;49.916;8.284;2024-02-14T13:00:59;10.90;99.90
32097;DHT22;18610;49.916;8.284;2024-02-14T13:03:26;10.90;99.90
32097;DHT22;18610;49.916;8.284;2024-02-14T13:05:53;11.00;99.90
32097;DHT22;18610;49.916;8.284;2024-02-14T13:08:20;10.90;99.90
32097;DHT22;18610;49.916;8.284;2024-02-14T13:10:49;10.90;99.90
32097;DHT22;18610;49.916;8.284;2024-02-14T13:13:15;10.90;99.90
32097;DHT22;18610;49.916;8.284;2024-02-14T13:15:44;10.90;99.90
32097;DHT22;18610;49.916;8.284;2024-02-14T13:18:11;10.90;99.90
32097;DHT22;18610;49.916;8.284;2024-02-14T13:20:37;10.90;99.90
32097;DHT22;18610;49.916;8.284;2024-02-14T13:23:04;10.80;99.90
32097;DHT22;18610;49.916;8.284;2024-02-14T13:25:34;10.80;99.90
32097;DHT22;18610;49.916;8.284;2024-02-14T13:28:02;10.90;99.90
32097;DHT22;18610;49.916;8.284;2024-02-14T13:30:29;10.80;99.90
32097;DHT22;18610;49.916;8.284;2024-02-14T13:32:57;10.70;99.90
32097;DHT22;18610;49.916;8.284;2024-02-14T13:35:24;10.70;99.90
32097;DHT22;18610;49.916;8.284;2024-02-14T13:37:50;10.70;99.90
32097;DHT22;18610;49.916;8.284;2024-02-14T13:40:17;10.70;99.90
32097;DHT22;18610;49.916;8.284;2024-02-14T13:42:44;10.70;99.90
32097;DHT22;18610;49.916;8.284;2024-02-14T13:45:11;10.70;99.90
32097;DHT22;18610;49.916;8.284;2024-02-14T13:47:37;10.70;99.90
32097;DHT22;18610;49.916;8.284;2024-02-14T13:50:08;10.70;99.90
32097;DHT22;18610;49.916;8.284;2024-02-14T13:52:35;10.70;99.90
32097;DHT22;18610;49.916;8.284;2024-02-14T13:55:02;10.70;99.90
32097;DHT22;18610;49.916;8.284;2024-02-14T13:57:31;10.70;99.90
32097;DHT22;18610;49.916;8.284;2024-02-14T13:59:58;10.70;99.90
32097;DHT22;18610;49.916;8.284;2024-02-14T14:02:25;10.70;99.90
32097;DHT22;18610;49.916;8.284;2024-02-14T14:04:51;10.70;99.90
32097;DHT22;18610;49.916;8.284;2024-02-14T14:07:21;10.70;99.90
32097;DHT22;18610;49.916;8.284;2024-02-14T14:09:49;10.60;99.90
32097;DHT22;18610;49.916;8.284;2024-02-14T14:12:15;10.60;99.90
32097;DHT22;18610;49.916;8.284;2024-02-14T14:14:42;10.60;99.90
32097;DHT22;18610;49.916;8.284;2024-02-14T14:17:09;10.50;99.90
32097;DHT22;18610;49.916;8.284;2024-02-14T14:19:36;10.60;99.90
32097;DHT22;18610;49.916;8.284;2024-02-14T14:22:02;10.60;99.90
32097;DHT22;18610;49.916;8.284;2024-02-14T14:24:30;10.60;99.90
32097;DHT22;18610;49.916;8.284;2024-02-14T14:26:57;10.60;99.90
32097;DHT22;18610;49.916;8.284;2024-02-14T14:29:24;10.60;99.90
32097;DHT22;18610;49.916;8.284;2024-02-14T14:31:50;10.60;99.90
32097;DHT22;18610;49.916;8.284;2024-02-14T14:34:18;10.60;99.90
32097;DHT22;18610;49.916;8.284;2024-02-14T14:36:45;10.70;99.90
32097;DHT22;18610;49.916;8.284;2024-02-14T14:39:11;10.60;99.90
32097;DHT22;18610;49.916;8.284;2024-02-14T14:41:39;10.60;99.90
32097;DHT22;18610;49.916;8.284;2024-02-14T14:44:07;10.60;99.90
32097;DHT22;18610;49.916;8.284;2024-02-14T14:46:34;10.60;99.90
32097;DHT22;18610;49.916;8.284;2024-02-14T14:49:01;10.60;99.90
32097;DHT22;18610;49.916;8.284;2024-02-14T14:51:28;10.50;99.90
32097;DHT22;18610;49.916;8.284;2024-02-14T14:53:54;10.50;99.90
32097;DHT22;18610;49.916;8.284;2024-02-14T14:56:21;10.50;99.90
32097;DHT22;18610;49.916;8.284;2024-02-14T14:58:52;10.40;99.90
32097;DHT22;18610;49.916;8.284;2024-02-14T15:01:19;10.40;99.90
32097;DHT22;18610;49.916;8.284;2024-02-14T15:03:45;10.40;99.90
32097;DHT22;18610;49.916;8.284;2024-02-14T15:06:12;10.30;99.90
32097;DHT22;18610;49.916;8.284;2024-02-14T15:08:41;10.30;99.90
32097;DHT22;18610;49.916;8.284;2024-02-14T15:11:09;10.30;99.90
32097;DHT22;18610;49.916;8.284;2024-02-14T15:13:36;10.30;99.90
32097;DHT22;18610;49.916;8.284;2024-02-14T15:16:05;10.30;99.90
32097;DHT22;18610;49.916;8.284;2024-02-14T15:18:33;10.30;99.90
32097;DHT22;18610;49.916;8.284;2024-02-14T15:21:00;10.30;99.90
32097;DHT22;18610;49.916;8.284;2024-02-14T15:23:27;10.30;99.90
32097;DHT22;18610;49.916;8.284;2024-02-14T15:25:53;10.40;99.90
32097;DHT22;18610;49.916;8.284;2024-02-14T15:28:27;10.40;99.90
32097;DHT22;18610;49.916;8.284;2024-02-14T15:30:55;10.40;99.90
32097;DHT22;18610;49.916;8.284;2024-02-14T15:33:41;10.40;99.90
32097;DHT22;18610;49.916;8.284;2024-02-14T15:36:08;10.40;99.90
32097;DHT22;18610;49.916;8.284;2024-02-14T15:38:35;10.40;99.90
32097;DHT22;18610;49.916;8.284;2024-02-14T15:41:02;10.50;99.90